createdAt,value
2019-02-17T00:00:57.761Z,4.97
2019-02-17T00:03:26.319Z,5.73
2019-02-17T00:05:54.908Z,7.47
2019-02-17T00:08:23.480Z,11.67
2019-02-17T00:10:52.081Z,12.33
2019-02-17T00:13:20.658Z,13.73
2019-02-17T00:15:49.268Z,13.27
2019-02-17T00:18:17.824Z,11.07
2019-02-17T00:20:46.420Z,9.53
2019-02-17T00:23:14.988Z,7.70
2019-02-17T00:25:43.575Z,6.47
2019-02-17T00:28:12.143Z,6.30
2019-02-17T00:30:40.729Z,7.13
2019-02-17T00:33:09.292Z,5.63
2019-02-17T00:35:37.885Z,5.30
2019-02-17T00:38:06.451Z,5.60
2019-02-17T00:40:35.507Z,6.07
2019-02-17T00:43:04.064Z,6.00
2019-02-17T00:45:32.650Z,6.80
2019-02-17T00:48:01.207Z,5.87
2019-02-17T00:50:29.800Z,6.47
2019-02-17T00:52:58.365Z,5.30
2019-02-17T00:55:26.953Z,8.20
2019-02-17T00:57:55.521Z,6.30
2019-02-17T01:00:24.112Z,6.60
2019-02-17T01:02:52.849Z,5.27
2019-02-17T01:05:21.438Z,5.63
2019-02-17T01:07:50.008Z,5.70
2019-02-17T01:10:18.597Z,5.50
2019-02-17T01:12:47.177Z,7.00
2019-02-17T01:15:15.761Z,7.03
2019-02-17T01:17:44.323Z,6.87
2019-02-17T01:20:12.904Z,7.33
2019-02-17T01:22:41.475Z,6.07
2019-02-17T01:25:10.604Z,7.17
2019-02-17T01:27:39.243Z,7.17
2019-02-17T01:30:10.902Z,5.73
2019-02-17T01:32:39.463Z,7.30
2019-02-17T01:35:08.416Z,6.83
2019-02-17T01:37:36.984Z,6.00
2019-02-17T01:40:10.103Z,6.57
2019-02-17T01:42:38.664Z,6.87
2019-02-17T01:45:09.192Z,6.40
2019-02-17T01:47:37.757Z,5.60
2019-02-17T01:50:08.787Z,7.20
2019-02-17T01:52:37.343Z,7.00
2019-02-17T01:55:07.873Z,7.13
2019-02-17T01:57:36.441Z,8.07
2019-02-17T02:00:10.932Z,7.23
2019-02-17T02:02:39.504Z,8.00
2019-02-17T02:05:08.262Z,7.43
2019-02-17T02:07:36.825Z,7.27
2019-02-17T02:10:08.045Z,6.17
2019-02-17T02:12:36.612Z,8.20
2019-02-17T02:15:08.412Z,7.90
2019-02-17T02:17:36.989Z,6.50
2019-02-17T02:20:11.266Z,7.30
2019-02-17T02:22:39.837Z,6.50
2019-02-17T02:25:08.668Z,5.87
2019-02-17T02:27:37.240Z,6.30
2019-02-17T02:30:08.941Z,5.63
2019-02-17T02:32:37.508Z,6.30
2019-02-17T02:35:06.641Z,5.70
2019-02-17T02:37:35.213Z,5.37
2019-02-17T02:40:03.872Z,5.93
2019-02-17T02:42:32.429Z,5.20
2019-02-17T02:45:01.030Z,5.50
2019-02-17T02:47:29.599Z,5.50
2019-02-17T02:49:58.194Z,5.33
2019-02-17T02:52:26.762Z,6.00
2019-02-17T02:54:55.338Z,6.20
2019-02-17T02:57:23.927Z,5.47
2019-02-17T02:59:52.862Z,5.50
2019-02-17T03:02:21.696Z,5.57
2019-02-17T03:04:50.267Z,5.50
2019-02-17T03:07:18.943Z,5.17
2019-02-17T03:09:47.500Z,5.67
2019-02-17T03:12:16.102Z,5.13
2019-02-17T03:14:44.679Z,4.90
2019-02-17T03:17:13.279Z,5.23
2019-02-17T03:19:41.849Z,5.60
2019-02-17T03:22:10.445Z,5.77
2019-02-17T03:24:39.014Z,5.53
2019-02-17T03:27:07.600Z,5.40
2019-02-17T03:29:36.171Z,5.63
2019-02-17T03:32:04.776Z,5.07
2019-02-17T03:34:33.349Z,5.70
2019-02-17T03:37:01.949Z,5.77
2019-02-17T03:39:30.513Z,5.80
2019-02-17T03:41:59.470Z,5.50
2019-02-17T03:44:28.032Z,5.43
2019-02-17T03:46:56.633Z,5.60
2019-02-17T03:49:25.209Z,5.50
2019-02-17T03:51:53.809Z,5.10
2019-02-17T03:54:22.381Z,5.60
2019-02-17T03:56:50.977Z,5.90
2019-02-17T03:59:19.552Z,5.60
2019-02-17T04:01:48.150Z,5.37
2019-02-17T04:04:16.723Z,5.53
2019-02-17T04:06:45.322Z,5.37
2019-02-17T04:09:13.894Z,5.43
2019-02-17T04:11:42.489Z,5.50
2019-02-17T04:14:11.058Z,5.30
2019-02-17T04:16:39.657Z,5.43
2019-02-17T04:19:08.228Z,5.10
2019-02-17T04:21:36.833Z,5.80
2019-02-17T04:24:05.410Z,5.07
2019-02-17T04:26:34.003Z,5.20
2019-02-17T04:29:02.573Z,5.20
2019-02-17T04:31:31.171Z,4.63
2019-02-17T04:33:59.736Z,5.50
2019-02-17T04:36:28.329Z,5.40
2019-02-17T04:38:56.910Z,5.57
2019-02-17T04:41:25.505Z,5.97
2019-02-17T04:43:54.073Z,6.20
2019-02-17T04:46:22.665Z,5.70
2019-02-17T04:48:51.239Z,5.87
2019-02-17T04:51:19.836Z,5.67
2019-02-17T04:53:48.437Z,4.80
2019-02-17T04:56:17.046Z,5.20
2019-02-17T04:58:45.610Z,6.40
2019-02-17T05:01:14.202Z,6.50
2019-02-17T05:03:42.786Z,6.90
2019-02-17T05:06:11.371Z,7.00
2019-02-17T05:08:39.944Z,6.47
2019-02-17T05:11:08.537Z,6.40
2019-02-17T05:13:37.120Z,7.63
2019-02-17T05:16:05.706Z,6.23
2019-02-17T05:18:34.264Z,7.23
2019-02-17T05:21:02.841Z,6.87
2019-02-17T05:23:31.433Z,6.70
2019-02-17T05:26:00.019Z,7.00
2019-02-17T05:28:28.611Z,5.57
2019-02-17T05:30:57.210Z,5.47
2019-02-17T05:33:25.773Z,5.40
2019-02-17T05:35:54.371Z,5.60
2019-02-17T05:38:22.943Z,5.40
2019-02-17T05:40:51.510Z,5.00
2019-02-17T05:43:20.104Z,4.80
2019-02-17T05:45:48.669Z,4.87
2019-02-17T05:48:17.260Z,4.60
2019-02-17T05:50:45.825Z,5.13
2019-02-17T05:53:14.430Z,5.77
2019-02-17T05:55:43.002Z,4.53
2019-02-17T05:58:11.599Z,5.07
2019-02-17T06:00:40.412Z,4.57
2019-02-17T06:03:09.004Z,4.50
2019-02-17T06:05:37.569Z,4.63
2019-02-17T06:08:06.174Z,4.50
2019-02-17T06:10:34.745Z,3.80
2019-02-17T06:13:03.337Z,3.80
2019-02-17T06:15:31.913Z,4.03
2019-02-17T06:18:00.509Z,3.70
2019-02-17T06:20:29.082Z,3.80
2019-02-17T06:22:57.673Z,3.73
2019-02-17T06:25:26.240Z,4.87
2019-02-17T06:27:54.841Z,4.87
2019-02-17T06:30:23.419Z,4.57
2019-02-17T06:32:52.014Z,4.23
2019-02-17T06:35:20.584Z,4.30
2019-02-17T06:37:49.178Z,4.07
2019-02-17T06:40:17.736Z,3.90
2019-02-17T06:42:46.340Z,4.50
2019-02-17T06:45:14.909Z,4.03
2019-02-17T06:47:43.506Z,4.37
2019-02-17T06:50:12.078Z,4.13
2019-02-17T06:52:40.666Z,4.47
2019-02-17T06:55:10.891Z,4.70
2019-02-17T06:57:41.124Z,4.40
2019-02-17T07:00:18.236Z,3.60
2019-02-17T07:02:46.838Z,4.27
2019-02-17T07:05:25.860Z,3.53
2019-02-17T07:07:54.449Z,3.27
2019-02-17T07:10:23.016Z,3.33
2019-02-17T07:12:51.620Z,3.73
2019-02-17T07:15:20.182Z,3.73
2019-02-17T07:17:48.778Z,3.47
2019-02-17T07:20:17.357Z,3.73
2019-02-17T07:22:45.940Z,3.67
2019-02-17T07:25:14.516Z,3.57
2019-02-17T07:27:47.318Z,3.47
2019-02-17T07:30:15.798Z,3.67
2019-02-17T07:32:44.364Z,3.20
2019-02-17T07:35:13.011Z,3.57
2019-02-17T07:37:41.610Z,4.30
2019-02-17T07:40:10.317Z,4.27
2019-02-17T07:42:38.914Z,5.77
2019-02-17T07:45:09.922Z,5.30
2019-02-17T07:47:38.519Z,4.90
2019-02-17T07:50:11.495Z,4.13
2019-02-17T07:52:40.081Z,4.77
2019-02-17T07:55:10.501Z,5.00
2019-02-17T07:57:39.093Z,4.53
2019-02-17T08:00:10.477Z,4.57
2019-02-17T08:02:39.146Z,5.03
2019-02-17T08:05:08.660Z,5.47
2019-02-17T08:07:37.311Z,5.77
2019-02-17T08:10:10.055Z,6.10
2019-02-17T08:12:38.695Z,6.53
2019-02-17T08:15:09.946Z,5.60
2019-02-17T08:17:38.582Z,5.53
2019-02-17T08:20:09.874Z,5.17
2019-02-17T08:22:38.469Z,7.60
2019-02-17T08:25:08.584Z,6.60
2019-02-17T08:27:37.185Z,11.23
2019-02-17T08:30:08.837Z,10.53
2019-02-17T08:32:37.432Z,11.73
2019-02-17T08:35:06.544Z,12.60
2019-02-17T08:37:35.132Z,12.23
2019-02-17T08:40:04.968Z,11.87
2019-02-17T08:42:33.544Z,10.50
2019-02-17T08:45:02.155Z,11.80
2019-02-17T08:47:30.716Z,11.43
2019-02-17T08:49:59.320Z,12.40
2019-02-17T08:52:27.893Z,11.17
2019-02-17T08:54:56.503Z,12.30
2019-02-17T08:57:25.081Z,12.77
2019-02-17T08:59:53.683Z,13.00
2019-02-17T09:02:22.263Z,12.93
2019-02-17T09:04:50.865Z,12.97
2019-02-17T09:07:19.439Z,13.63
2019-02-17T09:09:48.039Z,13.43
2019-02-17T09:12:16.618Z,12.53
2019-02-17T09:14:45.216Z,14.37
2019-02-17T09:17:13.793Z,15.63
2019-02-17T09:19:42.398Z,14.30
2019-02-17T09:22:10.986Z,13.70
2019-02-17T09:24:39.577Z,12.93
2019-02-17T09:27:08.153Z,12.50
2019-02-17T09:29:36.755Z,13.50
2019-02-17T09:32:05.349Z,13.20
2019-02-17T09:34:35.580Z,14.50
2019-02-17T09:37:04.164Z,12.90
2019-02-17T09:39:32.763Z,11.90
2019-02-17T09:42:01.330Z,14.43
2019-02-17T09:44:29.929Z,14.77
2019-02-17T09:46:58.500Z,13.33
2019-02-17T09:49:27.098Z,12.63
2019-02-17T09:51:55.678Z,12.20
2019-02-17T09:54:24.283Z,11.70
2019-02-17T09:56:54.507Z,13.03
2019-02-17T09:59:23.107Z,12.37
2019-02-17T10:01:52.462Z,12.27
2019-02-17T10:04:21.057Z,12.57
2019-02-17T10:06:49.624Z,12.70
2019-02-17T10:09:18.227Z,10.63
2019-02-17T10:11:46.806Z,10.93
2019-02-17T10:14:15.410Z,10.97
2019-02-17T10:16:43.990Z,12.00
2019-02-17T10:19:12.585Z,9.80
2019-02-17T10:21:41.157Z,11.10
2019-02-17T10:24:09.763Z,11.50
2019-02-17T10:26:38.331Z,11.33
2019-02-17T10:29:06.957Z,11.93
2019-02-17T10:31:35.492Z,12.27
2019-02-17T10:34:04.093Z,12.70
2019-02-17T10:36:32.673Z,12.63
2019-02-17T10:39:01.278Z,12.70
2019-02-17T10:41:29.858Z,11.10
2019-02-17T10:43:58.462Z,11.90
2019-02-17T10:46:27.043Z,12.63
2019-02-17T10:48:55.646Z,11.90
2019-02-17T10:51:26.373Z,12.07
2019-02-17T10:53:54.469Z,12.63
2019-02-17T10:56:23.045Z,12.73
2019-02-17T10:58:51.645Z,12.03
2019-02-17T11:01:20.230Z,13.20
2019-02-17T11:04:06.490Z,12.03
2019-02-17T11:06:35.070Z,12.30
2019-02-17T11:09:07.985Z,12.80
2019-02-17T11:11:36.565Z,12.57
2019-02-17T11:14:05.172Z,13.53
2019-02-17T11:16:33.752Z,12.10
2019-02-17T11:19:02.363Z,12.13
2019-02-17T11:21:30.947Z,12.90
2019-02-17T11:23:59.550Z,13.40
2019-02-17T11:26:28.125Z,12.80
2019-02-17T11:28:56.700Z,13.23
2019-02-17T11:31:25.314Z,12.97
2019-02-17T11:33:53.898Z,12.23
2019-02-17T11:36:22.503Z,10.70
2019-02-17T11:38:51.072Z,12.47
2019-02-17T11:41:19.678Z,12.63
2019-02-17T11:43:48.265Z,13.07
2019-02-17T11:46:16.865Z,12.70
2019-02-17T11:48:45.453Z,12.90
2019-02-17T11:51:14.058Z,11.90
2019-02-17T11:53:42.650Z,12.83
2019-02-17T11:56:11.255Z,12.40
2019-02-17T11:58:39.839Z,11.87
2019-02-17T12:01:08.445Z,12.63
2019-02-17T12:03:37.021Z,12.73
2019-02-17T12:06:05.629Z,12.67
2019-02-17T12:08:34.204Z,13.70
2019-02-17T12:11:02.813Z,12.70
2019-02-17T12:13:31.398Z,12.73
2019-02-17T12:16:00.005Z,12.73
2019-02-17T12:18:28.577Z,12.87
2019-02-17T12:20:58.813Z,12.13
2019-02-17T12:23:29.033Z,12.97
2019-02-17T12:25:59.277Z,12.70
2019-02-17T12:28:29.577Z,12.23
2019-02-17T12:30:58.106Z,13.07
2019-02-17T12:33:26.677Z,12.87
2019-02-17T12:35:55.276Z,12.73
2019-02-17T12:38:23.848Z,12.43
2019-02-17T12:40:52.459Z,13.87
2019-02-17T12:43:21.043Z,13.03
2019-02-17T12:45:49.652Z,12.73
2019-02-17T12:48:18.224Z,12.13
2019-02-17T12:50:47.098Z,11.93
2019-02-17T12:53:15.707Z,12.50
2019-02-17T12:55:44.304Z,11.67
2019-02-17T12:58:12.891Z,10.90
2019-02-17T13:00:41.488Z,11.60
2019-02-17T13:03:10.073Z,11.93
2019-02-17T13:05:38.668Z,11.60
2019-02-17T13:08:07.253Z,11.97
2019-02-17T13:10:35.858Z,11.30
2019-02-17T13:13:04.846Z,11.07
2019-02-17T13:15:33.554Z,11.10
2019-02-17T13:18:02.137Z,11.20
2019-02-17T13:20:30.737Z,10.73
2019-02-17T13:22:59.316Z,11.80
2019-02-17T13:25:27.925Z,10.77
2019-02-17T13:27:56.514Z,10.77
2019-02-17T13:30:26.860Z,11.20
2019-02-17T13:32:55.441Z,11.40
2019-02-17T13:35:24.042Z,9.80
2019-02-17T13:37:52.626Z,10.10
2019-02-17T13:40:21.238Z,10.47
2019-02-17T13:42:49.821Z,11.13
2019-02-17T13:45:18.434Z,10.43
2019-02-17T13:47:47.062Z,10.63
2019-02-17T13:50:18.529Z,10.27
2019-02-17T13:52:47.100Z,11.03
2019-02-17T13:55:15.711Z,10.00
2019-02-17T13:57:44.300Z,11.10
2019-02-17T14:00:17.362Z,10.60
2019-02-17T14:02:45.943Z,11.20
2019-02-17T14:05:14.612Z,10.43
2019-02-17T14:07:43.308Z,10.53
2019-02-17T14:10:15.326Z,10.80
2019-02-17T14:12:44.012Z,12.07
2019-02-17T14:15:22.841Z,10.73
2019-02-17T14:17:51.435Z,10.90
2019-02-17T14:20:20.009Z,11.23
2019-02-17T14:22:48.613Z,10.80
2019-02-17T14:25:17.209Z,11.73
2019-02-17T14:27:45.817Z,12.50
2019-02-17T14:30:15.654Z,10.67
2019-02-17T14:32:45.256Z,10.73
2019-02-17T14:35:14.001Z,11.43
2019-02-17T14:37:42.603Z,10.00
2019-02-17T14:40:13.389Z,10.63
2019-02-17T14:42:42.009Z,10.93
2019-02-17T14:45:12.799Z,10.93
2019-02-17T14:47:41.429Z,11.43
2019-02-17T14:50:11.038Z,11.43
2019-02-17T14:52:39.666Z,11.30
2019-02-17T14:58:30.170Z,10.73
2019-02-17T15:00:58.771Z,10.73
2019-02-17T15:03:27.400Z,10.67
2019-02-17T15:05:56.083Z,11.30
2019-02-17T15:08:24.666Z,11.37
2019-02-17T15:10:53.279Z,10.67
2019-02-17T15:13:24.645Z,11.63
2019-02-17T15:15:52.113Z,11.17
2019-02-17T15:18:20.694Z,11.80
2019-02-17T15:20:49.299Z,11.57
2019-02-17T15:23:17.886Z,10.83
2019-02-17T15:25:46.466Z,11.60
2019-02-17T15:28:15.069Z,11.07
2019-02-17T15:30:43.662Z,10.53
2019-02-17T15:33:12.266Z,11.10
2019-02-17T15:35:40.842Z,11.27
2019-02-17T15:38:09.453Z,11.70
2019-02-17T15:40:38.029Z,11.77
2019-02-17T15:43:06.631Z,12.17
2019-02-17T15:45:35.213Z,12.63
2019-02-17T15:48:03.821Z,11.70
2019-02-17T15:50:32.423Z,12.13
2019-02-17T15:53:01.034Z,12.50
2019-02-17T15:55:29.621Z,11.33
2019-02-17T15:57:58.227Z,12.53
2019-02-17T16:00:26.813Z,12.07
2019-02-17T16:02:55.418Z,11.83
2019-02-17T16:05:24.002Z,10.43
2019-02-17T16:07:52.605Z,9.80
2019-02-17T16:10:21.190Z,9.67
2019-02-17T16:12:49.784Z,8.93
2019-02-17T16:15:26.077Z,10.53
2019-02-17T16:17:54.681Z,8.50
2019-02-17T16:20:23.257Z,9.73
2019-02-17T16:22:51.865Z,8.87
2019-02-17T16:25:20.454Z,9.37
2019-02-17T16:27:49.048Z,10.60
2019-02-17T16:30:20.541Z,10.97
2019-02-17T16:32:49.133Z,9.37
2019-02-17T16:35:17.782Z,10.43
2019-02-17T16:37:46.402Z,10.00
2019-02-17T16:40:16.226Z,8.20
2019-02-17T16:42:44.822Z,8.83
2019-02-17T16:45:14.442Z,8.93
2019-02-17T16:47:43.808Z,8.70
2019-02-17T16:50:23.520Z,9.23
2019-02-17T16:52:52.125Z,7.87
2019-02-17T16:55:20.696Z,8.40
2019-02-17T16:57:49.298Z,8.20
2019-02-17T17:00:27.731Z,7.97
2019-02-17T17:02:56.972Z,8.70
2019-02-17T17:05:26.064Z,8.53
2019-02-17T17:07:54.677Z,9.73
2019-02-17T17:13:17.084Z,9.43
2019-02-17T17:15:45.658Z,9.43
2019-02-17T17:18:14.275Z,9.73
2019-02-17T17:20:42.851Z,10.70
2019-02-17T17:23:11.523Z,9.53
2019-02-17T17:25:40.160Z,10.37
2019-02-17T17:28:08.827Z,12.57
2019-02-17T17:30:37.393Z,10.47
2019-02-17T17:33:05.993Z,10.57
2019-02-17T17:35:34.579Z,12.07
2019-02-17T17:38:03.181Z,14.33
2019-02-17T17:40:31.762Z,11.90
2019-02-17T17:43:00.358Z,12.30
2019-02-17T17:45:30.773Z,14.80
2019-02-17T17:47:59.362Z,15.37
2019-02-17T17:50:27.942Z,15.03
2019-02-17T17:52:56.520Z,11.07
2019-02-17T17:55:25.122Z,9.53
2019-02-17T17:57:53.709Z,13.67
2019-02-17T18:00:23.959Z,10.90
2019-02-17T18:02:52.529Z,9.67
2019-02-17T18:05:21.129Z,9.50
2019-02-17T18:07:49.701Z,9.37
2019-02-17T18:10:18.305Z,8.43
2019-02-17T18:12:46.878Z,7.80
2019-02-17T18:15:17.418Z,11.93
2019-02-17T18:17:53.963Z,10.27
2019-02-17T18:20:16.313Z,13.30
2019-02-17T18:22:44.897Z,14.23
2019-02-17T18:25:13.937Z,13.50
2019-02-17T18:27:42.518Z,12.57
2019-02-17T18:30:16.676Z,12.53
2019-02-17T18:32:45.517Z,10.40
2019-02-17T18:35:19.599Z,13.20
2019-02-17T18:37:44.413Z,13.43
2019-02-17T18:40:18.901Z,15.93
2019-02-17T18:42:47.467Z,12.53
2019-02-17T18:45:16.606Z,13.43
2019-02-17T18:47:45.177Z,11.67
2019-02-17T18:50:15.022Z,10.73
2019-02-17T18:52:43.669Z,11.80
2019-02-17T18:55:13.418Z,10.87
2019-02-17T18:57:49.347Z,9.83
2019-02-17T19:00:21.278Z,10.97
2019-02-17T19:02:49.844Z,12.00
2019-02-17T19:05:20.133Z,12.93
2019-02-17T19:07:48.688Z,12.07
2019-02-17T19:10:17.280Z,13.17
2019-02-17T19:12:45.860Z,15.13
2019-02-17T19:15:16.973Z,17.20
2019-02-17T19:17:45.544Z,16.20
2019-02-17T19:20:17.161Z,16.03
2019-02-17T19:22:45.730Z,11.83
2019-02-17T19:25:14.417Z,11.47
2019-02-17T19:27:42.990Z,10.60
2019-02-17T19:30:14.235Z,10.40
2019-02-17T19:32:42.813Z,11.40
2019-02-17T19:35:13.450Z,13.77
2019-02-17T19:37:42.099Z,12.93
2019-02-17T19:40:16.905Z,13.37
2019-02-17T19:42:45.477Z,15.63
2019-02-17T19:45:16.293Z,18.63
2019-02-17T19:47:44.927Z,17.77
2019-02-17T19:50:14.967Z,14.93
2019-02-17T19:52:43.604Z,14.57
2019-02-17T19:55:14.215Z,17.27
2019-02-17T19:57:42.866Z,14.43
2019-02-17T20:00:19.652Z,12.57
2019-02-17T20:02:58.483Z,13.03
2019-02-17T20:05:28.724Z,14.43
2019-02-17T20:07:57.308Z,10.67
2019-02-17T20:10:25.905Z,10.20
2019-02-17T20:12:54.480Z,11.00
2019-02-17T20:15:24.717Z,10.23
2019-02-17T20:17:57.810Z,9.83
2019-02-17T20:20:26.413Z,10.20
2019-02-17T20:22:54.990Z,12.87
2019-02-17T20:25:23.585Z,10.47
2019-02-17T20:27:52.161Z,9.57
2019-02-17T20:30:20.766Z,10.70
2019-02-17T20:32:49.346Z,11.27
2019-02-17T20:35:17.949Z,10.40
2019-02-17T20:37:46.517Z,11.80
2019-02-17T20:40:16.968Z,11.23
2019-02-17T20:42:45.536Z,13.33
2019-02-17T20:45:14.131Z,9.93
2019-02-17T20:47:42.778Z,11.20
2019-02-17T20:50:14.287Z,12.97
2019-02-17T20:52:42.864Z,11.83
2019-02-17T20:55:12.405Z,11.40
2019-02-17T20:57:41.013Z,9.97
2019-02-17T21:00:14.797Z,10.17
2019-02-17T21:02:43.379Z,10.43
2019-02-17T21:05:12.109Z,10.47
2019-02-17T21:07:40.691Z,11.53
2019-02-17T21:10:11.898Z,11.83
2019-02-17T21:12:40.472Z,11.73
2019-02-17T21:15:16.561Z,10.20
2019-02-17T21:17:45.146Z,11.03
2019-02-17T21:20:14.742Z,9.73
2019-02-17T21:22:43.318Z,9.13
2019-02-17T21:25:13.260Z,9.20
2019-02-17T21:27:41.975Z,9.77
2019-02-17T21:30:15.789Z,8.60
2019-02-17T21:32:44.372Z,8.10
2019-02-17T21:35:14.604Z,8.60
2019-02-17T21:37:43.247Z,7.83
2019-02-17T21:40:12.789Z,7.57
2019-02-17T21:42:41.357Z,8.87
2019-02-17T21:45:11.598Z,7.50
2019-02-17T21:47:40.169Z,8.43
2019-02-17T21:50:13.562Z,7.97
2019-02-17T21:52:42.397Z,7.27
2019-02-17T21:55:12.473Z,8.13
2019-02-17T21:57:41.070Z,7.90
2019-02-17T22:00:16.812Z,7.77
2019-02-17T22:02:45.383Z,8.57
2019-02-17T22:05:13.968Z,6.83
2019-02-17T22:07:42.545Z,7.73
2019-02-17T22:10:18.694Z,7.97
2019-02-17T22:12:47.274Z,8.03
2019-02-17T22:15:20.541Z,7.37
2019-02-17T22:17:49.107Z,7.60
2019-02-17T22:20:17.704Z,8.47
2019-02-17T22:22:46.278Z,8.23
2019-02-17T22:25:15.822Z,7.93
2019-02-17T22:27:44.469Z,7.47
2019-02-17T22:30:15.161Z,7.67
2019-02-17T22:32:43.814Z,7.70
2019-02-17T22:35:12.478Z,8.13
2019-02-17T22:37:41.058Z,9.97
2019-02-17T22:40:13.997Z,7.07
2019-02-17T22:42:42.567Z,8.10
2019-02-17T22:45:12.181Z,10.67
2019-02-17T22:47:40.914Z,8.37
2019-02-17T22:50:13.902Z,9.07
2019-02-17T22:52:42.497Z,7.83
2019-02-17T22:55:12.112Z,8.67
2019-02-17T22:57:40.718Z,8.23
2019-02-17T23:00:15.169Z,8.40
2019-02-17T23:02:43.764Z,8.90
2019-02-17T23:05:12.333Z,8.47
2019-02-17T23:07:40.935Z,8.77
2019-02-17T23:10:10.445Z,8.63
2019-02-17T23:12:39.032Z,8.03
2019-02-17T23:15:08.349Z,8.50
2019-02-17T23:17:36.942Z,8.20
2019-02-17T23:20:07.158Z,7.97
2019-02-17T23:22:35.758Z,9.10
2019-02-17T23:25:06.970Z,9.07
2019-02-17T23:27:35.573Z,8.73
2019-02-17T23:30:05.986Z,8.70
2019-02-17T23:32:34.577Z,9.63
2019-02-17T23:35:03.155Z,9.30
2019-02-17T23:37:31.772Z,8.80
2019-02-17T23:40:00.337Z,9.40
2019-02-17T23:42:28.943Z,9.23
2019-02-17T23:44:57.523Z,9.97
2019-02-17T23:47:26.108Z,9.90
2019-02-17T23:49:54.683Z,9.73
2019-02-17T23:52:23.285Z,9.37
2019-02-17T23:54:51.859Z,9.13
2019-02-17T23:57:20.448Z,8.90
2019-02-17T23:59:49.033Z,8.70
